Hakuhomaru — JJ4011 — position and weather

sailwx.info

Track history (hours):
 
Tides and Currents Weather Stations Pressure Air Temp Water Temp Dewpoint Dewpoint Depression Visibility Wind Speed Wind Dir Waves Ship Positions

Hakuhomaru

Last reported at 2016-Jun-25 17:34 UTC. Time now 2016-Jun-25 17:53 UTC.
Position N 34°41' E 135°15'.

Length 38 m; draft 3.3 m.

Type: Tug. MMSI: 431401584.

Date/timePositionNaut miles runAvg speedWind from/ knotsBaromVisibWave heightAir tempDewpointWater temp
2016-Jun-25 17:34N 34°41' E 135°15'1 1.3
2016-Jun-25 16:34N 34°41' E 135°17'0 0.2
2016-Jun-25 15:33N 34°41' E 135°17'2 2.1
2016-Jun-25 14:33N 34°39' E 135°15'1 0.8
2016-Jun-25 13:34N 34°39' E 135°15'3 2.9
2016-Jun-25 12:34N 34°41' E 135°12'0 0.0
2016-Jun-25 11:33N 34°41' E 135°12'0 0.0
2016-Jun-25 06:33N 34°41' E 135°12'2 2.5
2016-Jun-25 05:33N 34°40' E 135°15'0 0.4
2016-Jun-25 04:33N 34°40' E 135°15'3 2.6
2016-Jun-25 03:33N 34°41' E 135°12'0 0.0
2016-Jun-25 02:33N 34°41' E 135°12'0 0.0
2016-Jun-25 01:33N 34°41' E 135°12'0 0.0
2016-Jun-25 00:33N 34°41' E 135°12'0 0.0
2016-Jun-24 23:33N 34°41' E 135°12'4 4.3
2016-Jun-24 22:33N 34°42' E 135°17'1 1.0
2016-Jun-24 21:33N 34°41' E 135°18'5 4.6
2016-Jun-24 20:33N 34°41' E 135°12'2 0.1
2016-Jun-24 04:33N 34°40' E 135°15'2 2.1
2016-Jun-24 03:33N 34°41' E 135°12'0 0.0
2016-Jun-24 02:33N 34°41' E 135°12'0 0.0
2016-Jun-24 01:33N 34°41' E 135°12'0 0.0
2016-Jun-24 00:33N 34°41' E 135°12'2 2.2
2016-Jun-23 23:33N 34°41' E 135°15'0 0.3
2016-Jun-23 22:33N 34°40' E 135°15'2 2.2
2016-Jun-23 21:33N 34°39' E 135°13'2 1.9
2016-Jun-23 20:33N 34°41' E 135°12'3 0.2
2016-Jun-23 05:33N 34°42' E 135°15'0 0.2
2016-Jun-23 04:33N 34°42' E 135°15'2 1.9
2016-Jun-23 03:33N 34°40' E 135°15'0 0.1
2016-Jun-23 02:33N 34°40' E 135°15'2 2.1
2016-Jun-23 01:33N 34°41' E 135°12'3 0.2
2016-Jun-22 14:33N 34°41' E 135°15'2 1.8
2016-Jun-22 13:33N 34°40' E 135°14'0 0.0
2016-Jun-22 12:33N 34°40' E 135°14'0 0.0
2016-Jun-22 11:33N 34°40' E 135°14'1 1.0
2016-Jun-22 10:33N 34°39' E 135°15'1 1.4
2016-Jun-22 09:33N 34°40' E 135°13'1 0.7
2016-Jun-22 08:33N 34°40' E 135°14'2 1.7
2016-Jun-22 07:33N 34°39' E 135°16'3 3.3
2016-Jun-22 06:32N 34°41' E 135°12'0 0.0
2016-Jun-22 05:33N 34°41' E 135°12'0 0.0
2016-Jun-22 04:33N 34°41' E 135°12'0 0.0
2016-Jun-22 03:33N 34°41' E 135°12'0 0.0
2016-Jun-22 02:33N 34°41' E 135°12'0 0.0
2016-Jun-22 01:33N 34°41' E 135°12'0 0.0
2016-Jun-22 00:33N 34°41' E 135°12'0 0.3
2016-Jun-21 23:33N 34°41' E 135°12'3 2.6
2016-Jun-21 22:33N 34°40' E 135°15'3 2.6
2016-Jun-21 21:33N 34°41' E 135°12'0 0.0
2016-Jun-20 18:25N 34°41' E 135°12'2 1.8
2016-Jun-20 17:33N 34°40' E 135°14'0 0.0
2016-Jun-20 16:33N 34°40' E 135°14'0 0.0
2016-Jun-20 15:33N 34°40' E 135°14'2 1.9
2016-Jun-20 14:33N 34°41' E 135°15'1 1.0
2016-Jun-20 13:33N 34°42' E 135°16'0 0.0
2016-Jun-20 12:33N 34°42' E 135°16'0 0.0
2016-Jun-20 11:33N 34°42' E 135°16'0 0.0
2016-Jun-20 10:33N 34°42' E 135°16'1 0.7
2016-Jun-20 09:33N 34°42' E 135°17'3 3.4
2016-Jun-20 08:33N 34°41' E 135°13'0 0.0
2016-Jun-20 07:33N 34°41' E 135°13'1 0.8
2016-Jun-20 06:33N 34°40' E 135°13'0 0.0
2016-Jun-20 05:33N 34°40' E 135°13'2 1.7
2016-Jun-20 04:33N 34°39' E 135°15'1 0.8
2016-Jun-20 03:33N 34°40' E 135°14'0 0.0
2016-Jun-20 02:33N 34°40' E 135°14'0 0.0
2016-Jun-20 01:33N 34°40' E 135°14'0 0.0
2016-Jun-20 00:33N 34°40' E 135°14'0 0.0
2016-Jun-19 23:33N 34°40' E 135°14'2 2.0
2016-Jun-19 22:33N 34°39' E 135°16'4 3.6
2016-Jun-19 21:33N 34°41' E 135°12'0 0.1
2016-Jun-19 20:33N 34°41' E 135°12'0 0.0
2016-Jun-19 05:33N 34°41' E 135°12'0 0.0
2016-Jun-19 04:33N 34°41' E 135°12'0 0.0
2016-Jun-19 03:33N 34°41' E 135°12'0 0.0
2016-Jun-19 02:33N 34°41' E 135°12'0 0.1
2016-Jun-19 01:33N 34°41' E 135°12'2 2.2
2016-Jun-19 00:33N 34°42' E 135°14'2 2.3
2016-Jun-18 23:33N 34°41' E 135°12'1 0.1
2016-Jun-18 12:33N 34°41' E 135°13'2 2.0
2016-Jun-18 11:33N 34°39' E 135°15'1 0.9
2016-Jun-18 10:33N 34°40' E 135°14'1 0.8
2016-Jun-18 09:34N 34°39' E 135°15'1 0.6
2016-Jun-18 08:33N 34°40' E 135°15'0 0.0
2016-Jun-18 07:34N 34°40' E 135°15'0 0.0
2016-Jun-18 06:33N 34°40' E 135°15'1 0.8
2016-Jun-18 05:33N 34°41' E 135°15'2 2.3
2016-Jun-18 04:33N 34°41' E 135°13'0 0.3
2016-Jun-18 03:33N 34°41' E 135°12'3 2.7
2016-Jun-18 02:33N 34°39' E 135°15'0 0.0
2016-Jun-18 01:33N 34°39' E 135°15'0 0.0
2016-Jun-18 00:33N 34°39' E 135°15'0 0.0
2016-Jun-17 23:33N 34°39' E 135°15'0 0.1
2016-Jun-17 22:33N 34°39' E 135°15'2 1.7
2016-Jun-17 21:33N 34°39' E 135°13'2 0.1
2016-Jun-17 08:27N 34°41' E 135°12'3 2.8
2016-Jun-17 07:33N 34°42' E 135°15'2 1.7
2016-Jun-17 06:33N 34°40' E 135°15'2 2.3
2016-Jun-17 05:33N 34°41' E 135°12'0 0.5
2016-Jun-17 04:33N 34°41' E 135°13'1 1.5
2016-Jun-17 03:33N 34°42' E 135°15'0 0.1
2016-Jun-17 02:33N 34°42' E 135°14'2 2.3
2016-Jun-17 01:33N 34°41' E 135°12'0 0.0
2016-Jun-17 00:33N 34°41' E 135°12'0 0.2
2016-Jun-16 23:33N 34°41' E 135°12'4 3.7
2016-Jun-16 22:33N 34°39' E 135°16'2 2.3
2016-Jun-16 21:33N 34°39' E 135°13'2 1.9
2016-Jun-16 20:33N 34°41' E 135°12'0 0.0
2016-Jun-16 07:33N 34°41' E 135°12'4 4.0
2016-Jun-16 06:33N 34°41' E 135°17'4 4.0
2016-Jun-16 05:33N 34°41' E 135°12'0 0.0
2016-Jun-16 04:33N 34°41' E 135°12'0 0.0
2016-Jun-16 03:33N 34°41' E 135°12'0 0.0
2016-Jun-16 02:33N 34°41' E 135°12'4 4.2
2016-Jun-16 01:33N 34°41' E 135°17'1 1.2
2016-Jun-16 00:33N 34°40' E 135°18'4 4.5
2016-Jun-15 23:33N 34°41' E 135°12'  
Track history (hours):
 
Tides and Currents Weather Stations Pressure Air Temp Water Temp Dewpoint Dewpoint Depression Visibility Wind Speed Wind Dir Waves Ship Positions

Hakuhomaru

Last reported at 2016-Jun-25 17:34 UTC. Time now 2016-Jun-25 17:53 UTC.
Position N 34°41' E 135°15'.

Length 38 m; draft 3.3 m.

Type: Tug. MMSI: 431401584.

Date/timePositionNaut miles runAvg speedWind from/ knotsBaromVisibWave heightAir tempDewpointWater temp
2016-Jun-25 17:34N 34°41' E 135°15'1 1.3
2016-Jun-25 16:34N 34°41' E 135°17'0 0.2
2016-Jun-25 15:33N 34°41' E 135°17'2 2.1
2016-Jun-25 14:33N 34°39' E 135°15'1 0.8
2016-Jun-25 13:34N 34°39' E 135°15'3 2.9
2016-Jun-25 12:34N 34°41' E 135°12'0 0.0
2016-Jun-25 11:33N 34°41' E 135°12'0 0.0
2016-Jun-25 06:33N 34°41' E 135°12'2 2.5
2016-Jun-25 05:33N 34°40' E 135°15'0 0.4
2016-Jun-25 04:33N 34°40' E 135°15'3 2.6
2016-Jun-25 03:33N 34°41' E 135°12'0 0.0
2016-Jun-25 02:33N 34°41' E 135°12'0 0.0
2016-Jun-25 01:33N 34°41' E 135°12'0 0.0
2016-Jun-25 00:33N 34°41' E 135°12'0 0.0
2016-Jun-24 23:33N 34°41' E 135°12'4 4.3
2016-Jun-24 22:33N 34°42' E 135°17'1 1.0
2016-Jun-24 21:33N 34°41' E 135°18'5 4.6
2016-Jun-24 20:33N 34°41' E 135°12'2 0.1
2016-Jun-24 04:33N 34°40' E 135°15'2 2.1
2016-Jun-24 03:33N 34°41' E 135°12'0 0.0
2016-Jun-24 02:33N 34°41' E 135°12'0 0.0
2016-Jun-24 01:33N 34°41' E 135°12'0 0.0
2016-Jun-24 00:33N 34°41' E 135°12'2 2.2
2016-Jun-23 23:33N 34°41' E 135°15'0 0.3
2016-Jun-23 22:33N 34°40' E 135°15'2 2.2
2016-Jun-23 21:33N 34°39' E 135°13'2 1.9
2016-Jun-23 20:33N 34°41' E 135°12'3 0.2
2016-Jun-23 05:33N 34°42' E 135°15'0 0.2
2016-Jun-23 04:33N 34°42' E 135°15'2 1.9
2016-Jun-23 03:33N 34°40' E 135°15'0 0.1
2016-Jun-23 02:33N 34°40' E 135°15'2 2.1
2016-Jun-23 01:33N 34°41' E 135°12'3 0.2
2016-Jun-22 14:33N 34°41' E 135°15'2 1.8
2016-Jun-22 13:33N 34°40' E 135°14'0 0.0
2016-Jun-22 12:33N 34°40' E 135°14'0 0.0
2016-Jun-22 11:33N 34°40' E 135°14'1 1.0
2016-Jun-22 10:33N 34°39' E 135°15'1 1.4
2016-Jun-22 09:33N 34°40' E 135°13'1 0.7
2016-Jun-22 08:33N 34°40' E 135°14'2 1.7
2016-Jun-22 07:33N 34°39' E 135°16'3 3.3
2016-Jun-22 06:32N 34°41' E 135°12'0 0.0
2016-Jun-22 05:33N 34°41' E 135°12'0 0.0
2016-Jun-22 04:33N 34°41' E 135°12'0 0.0
2016-Jun-22 03:33N 34°41' E 135°12'0 0.0
2016-Jun-22 02:33N 34°41' E 135°12'0 0.0
2016-Jun-22 01:33N 34°41' E 135°12'0 0.0
2016-Jun-22 00:33N 34°41' E 135°12'0 0.3
2016-Jun-21 23:33N 34°41' E 135°12'3 2.6
2016-Jun-21 22:33N 34°40' E 135°15'3 2.6
2016-Jun-21 21:33N 34°41' E 135°12'0 0.0
2016-Jun-20 18:25N 34°41' E 135°12'2 1.8
2016-Jun-20 17:33N 34°40' E 135°14'0 0.0
2016-Jun-20 16:33N 34°40' E 135°14'0 0.0
2016-Jun-20 15:33N 34°40' E 135°14'2 1.9
2016-Jun-20 14:33N 34°41' E 135°15'1 1.0
2016-Jun-20 13:33N 34°42' E 135°16'0 0.0
2016-Jun-20 12:33N 34°42' E 135°16'0 0.0
2016-Jun-20 11:33N 34°42' E 135°16'0 0.0
2016-Jun-20 10:33N 34°42' E 135°16'1 0.7
2016-Jun-20 09:33N 34°42' E 135°17'3 3.4
2016-Jun-20 08:33N 34°41' E 135°13'0 0.0
2016-Jun-20 07:33N 34°41' E 135°13'1 0.8
2016-Jun-20 06:33N 34°40' E 135°13'0 0.0
2016-Jun-20 05:33N 34°40' E 135°13'2 1.7
2016-Jun-20 04:33N 34°39' E 135°15'1 0.8
2016-Jun-20 03:33N 34°40' E 135°14'0 0.0
2016-Jun-20 02:33N 34°40' E 135°14'0 0.0
2016-Jun-20 01:33N 34°40' E 135°14'0 0.0
2016-Jun-20 00:33N 34°40' E 135°14'0 0.0
2016-Jun-19 23:33N 34°40' E 135°14'2 2.0
2016-Jun-19 22:33N 34°39' E 135°16'4 3.6
2016-Jun-19 21:33N 34°41' E 135°12'0 0.1
2016-Jun-19 20:33N 34°41' E 135°12'0 0.0
2016-Jun-19 05:33N 34°41' E 135°12'0 0.0
2016-Jun-19 04:33N 34°41' E 135°12'0 0.0
2016-Jun-19 03:33N 34°41' E 135°12'0 0.0
2016-Jun-19 02:33N 34°41' E 135°12'0 0.1
2016-Jun-19 01:33N 34°41' E 135°12'2 2.2
2016-Jun-19 00:33N 34°42' E 135°14'2 2.3
2016-Jun-18 23:33N 34°41' E 135°12'1 0.1
2016-Jun-18 12:33N 34°41' E 135°13'2 2.0
2016-Jun-18 11:33N 34°39' E 135°15'1 0.9
2016-Jun-18 10:33N 34°40' E 135°14'1 0.8
2016-Jun-18 09:34N 34°39' E 135°15'1 0.6
2016-Jun-18 08:33N 34°40' E 135°15'0 0.0
2016-Jun-18 07:34N 34°40' E 135°15'0 0.0
2016-Jun-18 06:33N 34°40' E 135°15'1 0.8
2016-Jun-18 05:33N 34°41' E 135°15'2 2.3
2016-Jun-18 04:33N 34°41' E 135°13'0 0.3
2016-Jun-18 03:33N 34°41' E 135°12'3 2.7
2016-Jun-18 02:33N 34°39' E 135°15'0 0.0
2016-Jun-18 01:33N 34°39' E 135°15'0 0.0
2016-Jun-18 00:33N 34°39' E 135°15'0 0.0
2016-Jun-17 23:33N 34°39' E 135°15'0 0.1
2016-Jun-17 22:33N 34°39' E 135°15'2 1.7
2016-Jun-17 21:33N 34°39' E 135°13'2 0.1
2016-Jun-17 08:27N 34°41' E 135°12'3 2.8
2016-Jun-17 07:33N 34°42' E 135°15'2 1.7
2016-Jun-17 06:33N 34°40' E 135°15'2 2.3
2016-Jun-17 05:33N 34°41' E 135°12'0 0.5
2016-Jun-17 04:33N 34°41' E 135°13'1 1.5
2016-Jun-17 03:33N 34°42' E 135°15'0 0.1
2016-Jun-17 02:33N 34°42' E 135°14'2 2.3
2016-Jun-17 01:33N 34°41' E 135°12'0 0.0
2016-Jun-17 00:33N 34°41' E 135°12'0 0.2
2016-Jun-16 23:33N 34°41' E 135°12'4 3.7
2016-Jun-16 22:33N 34°39' E 135°16'2 2.3
2016-Jun-16 21:33N 34°39' E 135°13'2 1.9
2016-Jun-16 20:33N 34°41' E 135°12'0 0.0
2016-Jun-16 07:33N 34°41' E 135°12'4 4.0
2016-Jun-16 06:33N 34°41' E 135°17'4 4.0
2016-Jun-16 05:33N 34°41' E 135°12'0 0.0
2016-Jun-16 04:33N 34°41' E 135°12'0 0.0
2016-Jun-16 03:33N 34°41' E 135°12'0 0.0
2016-Jun-16 02:33N 34°41' E 135°12'4 4.2
2016-Jun-16 01:33N 34°41' E 135°17'1 1.2
2016-Jun-16 00:33N 34°40' E 135°18'4 4.5
2016-Jun-15 23:33N 34°41' E 135°12'  

Dump ship's entire track history